OJAI/AMM METAR and TAF weather

Enter ICAO airport designator
Station Type Date Time Source
OJAI METAR 2019/06/17 07:00 UTC NOAA

OJAI 170700Z 23010KT 6000 FEW030 26/12 Q1014 NOSIG


Station Type Date Time Source
OJAI Decoded METAR 2019/06/17 07:00 UTC NOAA

Queen Alia Airport, Jordan (OJAI) 31-40N 035-58E
Jun 17, 2019 - 03:00 AM EDT / 2019.06.17 0700 UTC
Wind: from the SW (230 degrees) at 12 MPH (10 KT):0
Visibility: 3 mile(s):0
Sky conditions: mostly clear
Temperature: 78 F (26 C)
Dew Point: 53 F (12 C)
Relative Humidity: 41%
Pressure (altimeter): 29.94 in. Hg (1014 hPa)
ob: OJAI 170700Z 23010KT 6000 FEW030 26/12 Q1014 NOSIG
cycle: 7

Station Type Date Time Source
OJAI TAF 2019/06/17 06:15 UTC NOAA

TAF TAF OJAI 170500Z 1706/1812 28012KT 7000 NSC

Example: see airport list